sensor_id;sensor_type;location;lat;lon;timestamp;P1;durP1;ratioP1;P2;durP2;ratioP2
21107;SDS011;10712;52.944;9.098;2022-12-07T09:31:57;17.10;;;5.22;;
21107;SDS011;10712;52.944;9.098;2022-12-07T09:34:23;4.65;;;2.17;;
21107;SDS011;10712;52.944;9.098;2022-12-07T09:36:51;5.72;;;1.60;;
21107;SDS011;10712;52.944;9.098;2022-12-07T09:39:17;5.65;;;2.33;;
21107;SDS011;10712;52.944;9.098;2022-12-07T09:41:43;8.50;;;1.67;;
21107;SDS011;10712;52.944;9.098;2022-12-07T09:44:14;8.02;;;3.13;;
21107;SDS011;10712;52.944;9.098;2022-12-07T09:46:49;7.65;;;2.90;;
21107;SDS011;10712;52.944;9.098;2022-12-07T09:49:19;5.78;;;2.15;;
21107;SDS011;10712;52.944;9.098;2022-12-07T09:51:59;10.95;;;4.82;;
21107;SDS011;10712;52.944;9.098;2022-12-07T09:54:50;5.60;;;4.13;;
21107;SDS011;10712;52.944;9.098;2022-12-07T09:57:17;7.03;;;3.42;;
21107;SDS011;10712;52.944;9.098;2022-12-07T09:59:52;6.65;;;2.63;;
21107;SDS011;10712;52.944;9.098;2022-12-07T10:05:07;5.80;;;2.72;;
21107;SDS011;10712;52.944;9.098;2022-12-07T10:07:40;5.70;;;3.20;;
21107;SDS011;10712;52.944;9.098;2022-12-07T10:10:09;4.45;;;2.55;;
21107;SDS011;10712;52.944;9.098;2022-12-07T10:12:55;7.35;;;4.00;;
21107;SDS011;10712;52.944;9.098;2022-12-07T10:18:19;9.68;;;5.15;;
21107;SDS011;10712;52.944;9.098;2022-12-07T10:23:39;7.65;;;5.45;;
21107;SDS011;10712;52.944;9.098;2022-12-07T10:26:27;7.32;;;6.38;;
21107;SDS011;10712;52.944;9.098;2022-12-07T10:28:54;13.25;;;6.07;;
21107;SDS011;10712;52.944;9.098;2022-12-07T10:31:23;6.00;;;5.43;;
21107;SDS011;10712;52.944;9.098;2022-12-07T10:33:53;20.58;;;14.27;;
21107;SDS011;10712;52.944;9.098;2022-12-07T10:36:23;13.25;;;8.38;;
21107;SDS011;10712;52.944;9.098;2022-12-07T10:39:17;8.45;;;6.90;;
21107;SDS011;10712;52.944;9.098;2022-12-07T10:44:26;13.75;;;10.35;;
21107;SDS011;10712;52.944;9.098;2022-12-07T11:01:18;8.07;;;4.65;;
21107;SDS011;10712;52.944;9.098;2022-12-07T11:07:18;6.40;;;3.85;;
21107;SDS011;10712;52.944;9.098;2022-12-07T11:10:20;6.22;;;3.40;;
21107;SDS011;10712;52.944;9.098;2022-12-07T11:13:18;4.13;;;3.03;;
21107;SDS011;10712;52.944;9.098;2022-12-07T11:22:33;7.70;;;3.63;;
21107;SDS011;10712;52.944;9.098;2022-12-07T11:33:29;20.58;;;6.63;;
21107;SDS011;10712;52.944;9.098;2022-12-07T11:36:37;15.48;;;5.82;;
21107;SDS011;10712;52.944;9.098;2022-12-07T11:39:12;6.80;;;3.05;;
21107;SDS011;10712;52.944;9.098;2022-12-07T11:41:48;5.22;;;2.38;;
21107;SDS011;10712;52.944;9.098;2022-12-07T11:47:05;8.98;;;2.20;;
21107;SDS011;10712;52.944;9.098;2022-12-07T11:50:01;5.95;;;1.88;;
21107;SDS011;10712;52.944;9.098;2022-12-07T11:52:51;4.78;;;1.48;;
21107;SDS011;10712;52.944;9.098;2022-12-07T11:55:30;5.47;;;1.70;;
21107;SDS011;10712;52.944;9.098;2022-12-07T11:58:18;13.93;;;7.22;;
21107;SDS011;10712;52.944;9.098;2022-12-07T12:01:13;5.88;;;2.33;;
21107;SDS011;10712;52.944;9.098;2022-12-07T12:03:52;7.10;;;2.33;;
21107;SDS011;10712;52.944;9.098;2022-12-07T12:06:24;5.80;;;1.75;;
21107;SDS011;10712;52.944;9.098;2022-12-07T12:08:52;10.05;;;2.25;;
21107;SDS011;10712;52.944;9.098;2022-12-07T12:20:29;11.45;;;4.03;;
21107;SDS011;10712;52.944;9.098;2022-12-07T12:23:19;4.53;;;2.30;;
21107;SDS011;10712;52.944;9.098;2022-12-07T12:26:15;6.25;;;1.70;;
21107;SDS011;10712;52.944;9.098;2022-12-07T12:28:54;10.70;;;2.35;;
21107;SDS011;10712;52.944;9.098;2022-12-07T12:31:37;9.68;;;1.90;;
21107;SDS011;10712;52.944;9.098;2022-12-07T12:36:55;3.30;;;1.63;;
21107;SDS011;10712;52.944;9.098;2022-12-07T12:39:21;6.82;;;1.67;;
21107;SDS011;10712;52.944;9.098;2022-12-07T12:50:10;10.52;;;2.20;;
21107;SDS011;10712;52.944;9.098;2022-12-07T12:55:49;6.43;;;1.80;;
21107;SDS011;10712;52.944;9.098;2022-12-07T12:59:18;5.30;;;2.63;;
21107;SDS011;10712;52.944;9.098;2022-12-07T13:01:55;10.68;;;2.75;;
21107;SDS011;10712;52.944;9.098;2022-12-07T13:04:51;8.93;;;2.70;;
21107;SDS011;10712;52.944;9.098;2022-12-07T13:15:49;9.57;;;3.00;;
21107;SDS011;10712;52.944;9.098;2022-12-07T13:18:40;13.00;;;4.85;;
21107;SDS011;10712;52.944;9.098;2022-12-07T13:29:18;8.18;;;2.45;;
21107;SDS011;10712;52.944;9.098;2022-12-07T13:31:52;4.78;;;1.70;;
21107;SDS011;10712;52.944;9.098;2022-12-07T13:34:32;6.25;;;1.63;;
21107;SDS011;10712;52.944;9.098;2022-12-07T13:39:50;5.07;;;3.65;;
21107;SDS011;10712;52.944;9.098;2022-12-07T13:42:27;6.30;;;5.00;;
21107;SDS011;10712;52.944;9.098;2022-12-07T13:44:57;6.72;;;3.00;;
21107;SDS011;10712;52.944;9.098;2022-12-07T13:50:28;4.45;;;3.08;;
21107;SDS011;10712;52.944;9.098;2022-12-07T13:52:57;10.73;;;4.40;;
21107;SDS011;10712;52.944;9.098;2022-12-07T13:55:26;3.38;;;2.20;;
21107;SDS011;10712;52.944;9.098;2022-12-07T13:57:54;4.00;;;2.63;;
21107;SDS011;10712;52.944;9.098;2022-12-07T14:00:21;10.27;;;6.47;;
21107;SDS011;10712;52.944;9.098;2022-12-07T14:05:30;12.18;;;8.75;;
21107;SDS011;10712;52.944;9.098;2022-12-07T14:10:36;5.60;;;4.60;;
21107;SDS011;10712;52.944;9.098;2022-12-07T14:19:05;4.65;;;2.78;;
21107;SDS011;10712;52.944;9.098;2022-12-07T14:22:08;5.15;;;3.10;;
21107;SDS011;10712;52.944;9.098;2022-12-07T14:24:44;4.55;;;2.70;;
21107;SDS011;10712;52.944;9.098;2022-12-07T14:27:23;4.13;;;3.80;;
21107;SDS011;10712;52.944;9.098;2022-12-07T14:29:51;6.22;;;3.20;;
21107;SDS011;10712;52.944;9.098;2022-12-07T14:34:58;14.02;;;6.22;;
21107;SDS011;10712;52.944;9.098;2022-12-07T14:37:38;26.85;;;7.95;;
21107;SDS011;10712;52.944;9.098;2022-12-07T14:40:06;41.13;;;13.73;;
21107;SDS011;10712;52.944;9.098;2022-12-07T14:42:41;43.95;;;14.20;;
21107;SDS011;10712;52.944;9.098;2022-12-07T14:45:20;12.98;;;6.30;;
21107;SDS011;10712;52.944;9.098;2022-12-07T14:47:48;9.15;;;3.83;;
21107;SDS011;10712;52.944;9.098;2022-12-07T14:50:15;5.45;;;3.33;;
21107;SDS011;10712;52.944;9.098;2022-12-07T14:52:45;6.25;;;1.88;;
21107;SDS011;10712;52.944;9.098;2022-12-07T14:55:27;6.00;;;2.53;;
21107;SDS011;10712;52.944;9.098;2022-12-07T14:57:56;9.65;;;5.35;;
21107;SDS011;10712;52.944;9.098;2022-12-07T15:00:24;8.50;;;4.53;;
21107;SDS011;10712;52.944;9.098;2022-12-07T15:02:51;10.00;;;5.68;;
21107;SDS011;10712;52.944;9.098;2022-12-07T15:05:18;5.38;;;2.15;;
21107;SDS011;10712;52.944;9.098;2022-12-07T15:07:45;4.20;;;1.67;;
21107;SDS011;10712;52.944;9.098;2022-12-07T15:10:22;5.97;;;1.80;;
21107;SDS011;10712;52.944;9.098;2022-12-07T15:12:57;5.95;;;1.77;;
21107;SDS011;10712;52.944;9.098;2022-12-07T15:15:46;4.50;;;3.00;;
21107;SDS011;10712;52.944;9.098;2022-12-07T15:18:15;8.18;;;3.20;;
21107;SDS011;10712;52.944;9.098;2022-12-07T15:20:42;4.72;;;3.45;;
21107;SDS011;10712;52.944;9.098;2022-12-07T15:23:08;6.13;;;3.28;;
21107;SDS011;10712;52.944;9.098;2022-12-07T15:25:35;54.80;;;38.03;;
21107;SDS011;10712;52.944;9.098;2022-12-07T15:28:01;59.72;;;36.60;;
21107;SDS011;10712;52.944;9.098;2022-12-07T15:30:27;12.93;;;9.32;;
21107;SDS011;10712;52.944;9.098;2022-12-07T15:32:53;12.90;;;7.85;;
21107;SDS011;10712;52.944;9.098;2022-12-07T15:35:19;8.90;;;5.22;;
21107;SDS011;10712;52.944;9.098;2022-12-07T15:37:46;6.68;;;3.95;;
21107;SDS011;10712;52.944;9.098;2022-12-07T15:40:12;5.93;;;4.03;;
21107;SDS011;10712;52.944;9.098;2022-12-07T15:42:38;8.10;;;4.13;;
21107;SDS011;10712;52.944;9.098;2022-12-07T15:45:06;5.30;;;3.42;;
21107;SDS011;10712;52.944;9.098;2022-12-07T15:47:35;3.35;;;2.17;;
21107;SDS011;10712;52.944;9.098;2022-12-07T15:50:07;6.93;;;4.70;;
21107;SDS011;10712;52.944;9.098;2022-12-07T15:52:37;6.05;;;3.90;;
21107;SDS011;10712;52.944;9.098;2022-12-07T15:55:04;6.18;;;3.63;;
21107;SDS011;10712;52.944;9.098;2022-12-07T15:57:31;5.53;;;3.78;;
21107;SDS011;10712;52.944;9.098;2022-12-07T15:59:58;5.10;;;3.25;;
21107;SDS011;10712;52.944;9.098;2022-12-07T16:02:24;9.90;;;6.45;;
21107;SDS011;10712;52.944;9.098;2022-12-07T16:04:51;8.50;;;6.57;;
21107;SDS011;10712;52.944;9.098;2022-12-07T16:07:17;5.03;;;4.40;;
21107;SDS011;10712;52.944;9.098;2022-12-07T16:09:44;8.00;;;5.43;;
21107;SDS011;10712;52.944;9.098;2022-12-07T16:12:11;5.68;;;4.50;;
21107;SDS011;10712;52.944;9.098;2022-12-07T16:14:38;11.00;;;7.80;;
21107;SDS011;10712;52.944;9.098;2022-12-07T16:17:05;9.43;;;5.15;;
21107;SDS011;10712;52.944;9.098;2022-12-07T16:19:33;5.85;;;5.10;;
21107;SDS011;10712;52.944;9.098;2022-12-07T16:22:01;10.52;;;8.52;;
21107;SDS011;10712;52.944;9.098;2022-12-07T16:24:28;9.18;;;6.93;;
21107;SDS011;10712;52.944;9.098;2022-12-07T16:26:55;9.00;;;5.47;;
21107;SDS011;10712;52.944;9.098;2022-12-07T16:29:21;13.32;;;9.88;;
21107;SDS011;10712;52.944;9.098;2022-12-07T16:31:47;7.32;;;6.22;;
21107;SDS011;10712;52.944;9.098;2022-12-07T16:34:15;15.38;;;9.23;;
21107;SDS011;10712;52.944;9.098;2022-12-07T16:36:42;19.65;;;12.70;;
21107;SDS011;10712;52.944;9.098;2022-12-07T16:39:08;11.18;;;7.68;;
21107;SDS011;10712;52.944;9.098;2022-12-07T16:41:34;7.20;;;5.13;;
21107;SDS011;10712;52.944;9.098;2022-12-07T16:44:04;8.57;;;5.57;;
21107;SDS011;10712;52.944;9.098;2022-12-07T16:46:33;14.07;;;9.50;;
21107;SDS011;10712;52.944;9.098;2022-12-07T16:49:00;8.77;;;6.75;;
21107;SDS011;10712;52.944;9.098;2022-12-07T16:51:28;9.25;;;7.10;;
21107;SDS011;10712;52.944;9.098;2022-12-07T16:53:54;8.07;;;6.20;;
21107;SDS011;10712;52.944;9.098;2022-12-07T16:56:20;8.05;;;6.95;;
21107;SDS011;10712;52.944;9.098;2022-12-07T16:58:46;16.02;;;10.48;;
21107;SDS011;10712;52.944;9.098;2022-12-07T17:01:17;6.80;;;5.60;;
21107;SDS011;10712;52.944;9.098;2022-12-07T17:03:47;10.48;;;6.57;;
21107;SDS011;10712;52.944;9.098;2022-12-07T17:06:14;7.93;;;5.43;;
21107;SDS011;10712;52.944;9.098;2022-12-07T17:08:46;9.07;;;4.40;;
21107;SDS011;10712;52.944;9.098;2022-12-07T17:11:15;4.32;;;2.63;;
21107;SDS011;10712;52.944;9.098;2022-12-07T17:13:45;5.00;;;2.67;;
21107;SDS011;10712;52.944;9.098;2022-12-07T17:16:30;4.75;;;2.80;;
21107;SDS011;10712;52.944;9.098;2022-12-07T17:18:57;3.80;;;3.17;;
21107;SDS011;10712;52.944;9.098;2022-12-07T17:21:23;4.93;;;2.85;;
21107;SDS011;10712;52.944;9.098;2022-12-07T17:23:50;6.05;;;3.88;;
21107;SDS011;10712;52.944;9.098;2022-12-07T17:26:20;4.88;;;3.33;;
21107;SDS011;10712;52.944;9.098;2022-12-07T17:28:49;7.03;;;4.25;;
21107;SDS011;10712;52.944;9.098;2022-12-07T17:31:16;5.47;;;3.85;;
21107;SDS011;10712;52.944;9.098;2022-12-07T17:33:45;8.77;;;5.40;;
21107;SDS011;10712;52.944;9.098;2022-12-07T17:38:39;14.88;;;9.02;;
21107;SDS011;10712;52.944;9.098;2022-12-07T17:41:13;13.00;;;9.07;;
21107;SDS011;10712;52.944;9.098;2022-12-07T17:44:10;9.68;;;5.63;;
21107;SDS011;10712;52.944;9.098;2022-12-07T17:46:39;7.65;;;4.93;;
21107;SDS011;10712;52.944;9.098;2022-12-07T17:49:07;7.40;;;4.07;;
21107;SDS011;10712;52.944;9.098;2022-12-07T17:51:33;8.53;;;4.90;;
21107;SDS011;10712;52.944;9.098;2022-12-07T17:54:18;6.07;;;3.85;;
21107;SDS011;10712;52.944;9.098;2022-12-07T17:56:44;6.15;;;4.90;;
21107;SDS011;10712;52.944;9.098;2022-12-07T17:59:11;8.35;;;5.28;;
21107;SDS011;10712;52.944;9.098;2022-12-07T18:01:37;10.98;;;7.60;;
21107;SDS011;10712;52.944;9.098;2022-12-07T18:04:04;8.43;;;6.50;;
21107;SDS011;10712;52.944;9.098;2022-12-07T18:06:30;9.15;;;6.35;;
21107;SDS011;10712;52.944;9.098;2022-12-07T18:08:57;10.05;;;7.05;;
21107;SDS011;10712;52.944;9.098;2022-12-07T18:11:24;8.45;;;7.57;;
21107;SDS011;10712;52.944;9.098;2022-12-07T18:13:51;6.68;;;6.07;;
21107;SDS011;10712;52.944;9.098;2022-12-07T18:16:18;7.18;;;6.47;;
21107;SDS011;10712;52.944;9.098;2022-12-07T18:18:51;7.93;;;5.00;;
21107;SDS011;10712;52.944;9.098;2022-12-07T18:21:21;7.25;;;6.50;;
21107;SDS011;10712;52.944;9.098;2022-12-07T18:23:51;6.45;;;5.10;;
21107;SDS011;10712;52.944;9.098;2022-12-07T18:26:20;6.70;;;4.75;;
21107;SDS011;10712;52.944;9.098;2022-12-07T18:28:48;10.70;;;7.75;;
21107;SDS011;10712;52.944;9.098;2022-12-07T18:31:15;6.13;;;4.93;;
21107;SDS011;10712;52.944;9.098;2022-12-07T18:33:42;5.38;;;3.85;;
21107;SDS011;10712;52.944;9.098;2022-12-07T18:36:09;6.93;;;4.07;;
21107;SDS011;10712;52.944;9.098;2022-12-07T18:38:36;4.68;;;3.30;;
21107;SDS011;10712;52.944;9.098;2022-12-07T18:41:05;5.93;;;3.47;;
21107;SDS011;10712;52.944;9.098;2022-12-07T18:43:33;3.88;;;2.75;;
21107;SDS011;10712;52.944;9.098;2022-12-07T18:45:59;7.97;;;3.42;;
21107;SDS011;10712;52.944;9.098;2022-12-07T18:48:25;3.22;;;2.90;;
21107;SDS011;10712;52.944;9.098;2022-12-07T18:50:58;3.22;;;2.80;;
21107;SDS011;10712;52.944;9.098;2022-12-07T18:53:27;4.75;;;2.90;;
21107;SDS011;10712;52.944;9.098;2022-12-07T18:56:06;2.85;;;2.42;;
21107;SDS011;10712;52.944;9.098;2022-12-07T18:58:43;4.53;;;4.10;;
21107;SDS011;10712;52.944;9.098;2022-12-07T19:01:53;9.73;;;5.43;;
21107;SDS011;10712;52.944;9.098;2022-12-07T19:04:19;13.05;;;7.88;;
21107;SDS011;10712;52.944;9.098;2022-12-07T19:06:45;14.43;;;9.32;;
21107;SDS011;10712;52.944;9.098;2022-12-07T19:09:13;18.35;;;12.23;;
21107;SDS011;10712;52.944;9.098;2022-12-07T19:11:39;14.95;;;9.85;;
21107;SDS011;10712;52.944;9.098;2022-12-07T19:14:20;10.38;;;7.53;;
21107;SDS011;10712;52.944;9.098;2022-12-07T19:16:53;8.60;;;5.53;;
21107;SDS011;10712;52.944;9.098;2022-12-07T19:19:23;10.90;;;6.35;;
21107;SDS011;10712;52.944;9.098;2022-12-07T19:21:55;14.75;;;7.55;;
21107;SDS011;10712;52.944;9.098;2022-12-07T19:24:21;13.48;;;7.80;;
21107;SDS011;10712;52.944;9.098;2022-12-07T19:26:47;12.90;;;8.27;;
21107;SDS011;10712;52.944;9.098;2022-12-07T19:29:13;11.80;;;7.63;;
21107;SDS011;10712;52.944;9.098;2022-12-07T19:31:38;12.70;;;8.82;;
21107;SDS011;10712;52.944;9.098;2022-12-07T19:34:11;17.27;;;8.35;;
21107;SDS011;10712;52.944;9.098;2022-12-07T19:36:42;11.38;;;7.20;;
21107;SDS011;10712;52.944;9.098;2022-12-07T19:39:10;6.85;;;6.15;;
21107;SDS011;10712;52.944;9.098;2022-12-07T19:41:36;8.55;;;6.40;;
21107;SDS011;10712;52.944;9.098;2022-12-07T19:44:05;9.45;;;6.32;;
21107;SDS011;10712;52.944;9.098;2022-12-07T19:49:01;5.82;;;5.22;;
21107;SDS011;10712;52.944;9.098;2022-12-07T19:51:28;7.60;;;6.23;;
21107;SDS011;10712;52.944;9.098;2022-12-07T19:53:56;6.82;;;6.15;;
21107;SDS011;10712;52.944;9.098;2022-12-07T19:56:24;6.90;;;6.20;;
21107;SDS011;10712;52.944;9.098;2022-12-07T19:58:51;32.65;;;18.80;;
21107;SDS011;10712;52.944;9.098;2022-12-07T20:01:18;17.45;;;11.38;;
21107;SDS011;10712;52.944;9.098;2022-12-07T20:03:45;13.32;;;9.55;;
21107;SDS011;10712;52.944;9.098;2022-12-07T20:06:12;7.60;;;6.18;;
21107;SDS011;10712;52.944;9.098;2022-12-07T20:08:44;7.78;;;5.00;;
21107;SDS011;10712;52.944;9.098;2022-12-07T20:11:12;6.05;;;4.50;;
21107;SDS011;10712;52.944;9.098;2022-12-07T20:13:59;4.93;;;3.85;;
21107;SDS011;10712;52.944;9.098;2022-12-07T20:16:25;4.53;;;3.78;;
21107;SDS011;10712;52.944;9.098;2022-12-07T20:18:51;5.53;;;3.60;;
21107;SDS011;10712;52.944;9.098;2022-12-07T20:21:18;4.03;;;3.22;;
21107;SDS011;10712;52.944;9.098;2022-12-07T20:23:45;6.35;;;3.60;;
21107;SDS011;10712;52.944;9.098;2022-12-07T20:26:11;5.15;;;2.90;;
21107;SDS011;10712;52.944;9.098;2022-12-07T20:28:39;4.50;;;3.60;;
21107;SDS011;10712;52.944;9.098;2022-12-07T20:31:10;5.32;;;3.63;;
21107;SDS011;10712;52.944;9.098;2022-12-07T20:33:38;5.63;;;3.78;;
21107;SDS011;10712;52.944;9.098;2022-12-07T20:36:05;6.18;;;4.22;;
21107;SDS011;10712;52.944;9.098;2022-12-07T20:38:32;3.72;;;3.28;;
21107;SDS011;10712;52.944;9.098;2022-12-07T20:40:59;5.30;;;3.60;;
21107;SDS011;10712;52.944;9.098;2022-12-07T20:43:29;3.88;;;2.83;;
21107;SDS011;10712;52.944;9.098;2022-12-07T20:45:55;5.30;;;3.25;;
21107;SDS011;10712;52.944;9.098;2022-12-07T20:48:22;3.95;;;3.20;;
21107;SDS011;10712;52.944;9.098;2022-12-07T20:50:48;6.63;;;4.07;;
21107;SDS011;10712;52.944;9.098;2022-12-07T20:53:15;6.78;;;3.35;;
21107;SDS011;10712;52.944;9.098;2022-12-07T20:55:41;3.08;;;2.72;;
21107;SDS011;10712;52.944;9.098;2022-12-07T20:58:07;3.55;;;3.22;;
21107;SDS011;10712;52.944;9.098;2022-12-07T21:00:34;6.78;;;3.90;;
21107;SDS011;10712;52.944;9.098;2022-12-07T21:03:01;6.78;;;4.22;;
21107;SDS011;10712;52.944;9.098;2022-12-07T21:05:30;8.95;;;4.57;;
21107;SDS011;10712;52.944;9.098;2022-12-07T21:07:59;5.35;;;3.72;;
21107;SDS011;10712;52.944;9.098;2022-12-07T21:10:25;5.65;;;3.60;;
21107;SDS011;10712;52.944;9.098;2022-12-07T21:12:50;5.22;;;3.58;;
21107;SDS011;10712;52.944;9.098;2022-12-07T21:15:16;4.68;;;4.03;;
21107;SDS011;10712;52.944;9.098;2022-12-07T21:17:42;6.78;;;5.00;;
21107;SDS011;10712;52.944;9.098;2022-12-07T21:20:08;6.95;;;4.28;;
21107;SDS011;10712;52.944;9.098;2022-12-07T21:22:35;5.65;;;4.18;;
21107;SDS011;10712;52.944;9.098;2022-12-07T21:25:01;4.00;;;3.60;;
21107;SDS011;10712;52.944;9.098;2022-12-07T21:27:27;8.30;;;4.80;;
21107;SDS011;10712;52.944;9.098;2022-12-07T21:29:53;6.80;;;4.38;;
21107;SDS011;10712;52.944;9.098;2022-12-07T21:32:19;4.90;;;4.10;;
21107;SDS011;10712;52.944;9.098;2022-12-07T21:34:45;4.32;;;3.22;;
21107;SDS011;10712;52.944;9.098;2022-12-07T21:37:10;6.97;;;4.15;;
21107;SDS011;10712;52.944;9.098;2022-12-07T21:39:36;6.00;;;3.92;;
21107;SDS011;10712;52.944;9.098;2022-12-07T21:42:02;6.60;;;3.83;;
21107;SDS011;10712;52.944;9.098;2022-12-07T21:44:28;5.75;;;3.78;;
21107;SDS011;10712;52.944;9.098;2022-12-07T21:46:53;5.07;;;3.45;;
21107;SDS011;10712;52.944;9.098;2022-12-07T21:49:19;5.60;;;4.00;;
21107;SDS011;10712;52.944;9.098;2022-12-07T21:51:45;8.90;;;3.80;;
21107;SDS011;10712;52.944;9.098;2022-12-07T21:54:11;7.03;;;4.15;;
21107;SDS011;10712;52.944;9.098;2022-12-07T21:56:38;8.18;;;4.35;;
21107;SDS011;10712;52.944;9.098;2022-12-07T21:59:13;6.22;;;4.20;;
21107;SDS011;10712;52.944;9.098;2022-12-07T22:01:43;7.78;;;4.28;;
21107;SDS011;10712;52.944;9.098;2022-12-07T22:04:15;5.40;;;3.95;;
21107;SDS011;10712;52.944;9.098;2022-12-07T22:06:44;6.82;;;3.95;;
21107;SDS011;10712;52.944;9.098;2022-12-07T22:09:11;6.28;;;4.18;;
21107;SDS011;10712;52.944;9.098;2022-12-07T22:11:38;7.05;;;3.92;;
21107;SDS011;10712;52.944;9.098;2022-12-07T22:14:05;6.22;;;3.97;;
21107;SDS011;10712;52.944;9.098;2022-12-07T22:16:50;6.15;;;3.47;;
21107;SDS011;10712;52.944;9.098;2022-12-07T22:19:17;8.55;;;4.32;;
21107;SDS011;10712;52.944;9.098;2022-12-07T22:21:43;6.25;;;4.18;;
21107;SDS011;10712;52.944;9.098;2022-12-07T22:24:10;5.60;;;3.95;;
21107;SDS011;10712;52.944;9.098;2022-12-07T22:26:38;14.35;;;4.45;;
21107;SDS011;10712;52.944;9.098;2022-12-07T22:29:04;4.18;;;3.58;;
21107;SDS011;10712;52.944;9.098;2022-12-07T22:31:30;5.20;;;3.97;;
21107;SDS011;10712;52.944;9.098;2022-12-07T22:33:56;4.03;;;3.63;;
21107;SDS011;10712;52.944;9.098;2022-12-07T22:36:22;6.57;;;3.55;;
21107;SDS011;10712;52.944;9.098;2022-12-07T22:38:48;6.80;;;3.80;;
21107;SDS011;10712;52.944;9.098;2022-12-07T22:41:15;4.88;;;3.47;;
21107;SDS011;10712;52.944;9.098;2022-12-07T22:43:52;7.32;;;3.50;;
21107;SDS011;10712;52.944;9.098;2022-12-07T22:46:19;8.13;;;3.85;;
21107;SDS011;10712;52.944;9.098;2022-12-07T22:48:47;9.13;;;4.15;;
21107;SDS011;10712;52.944;9.098;2022-12-07T22:51:56;6.35;;;3.05;;
21107;SDS011;10712;52.944;9.098;2022-12-07T22:54:06;6.73;;;3.73;;
21107;SDS011;10712;52.944;9.098;2022-12-07T22:56:38;5.20;;;3.22;;
21107;SDS011;10712;52.944;9.098;2022-12-07T22:59:05;5.55;;;3.17;;
21107;SDS011;10712;52.944;9.098;2022-12-07T23:01:32;7.10;;;3.45;;
21107;SDS011;10712;52.944;9.098;2022-12-07T23:03:58;16.13;;;3.70;;
21107;SDS011;10712;52.944;9.098;2022-12-07T23:06:27;5.68;;;3.65;;
21107;SDS011;10712;52.944;9.098;2022-12-07T23:08:56;5.45;;;3.55;;
21107;SDS011;10712;52.944;9.098;2022-12-07T23:11:27;7.47;;;3.85;;
21107;SDS011;10712;52.944;9.098;2022-12-07T23:14:17;5.82;;;4.35;;
21107;SDS011;10712;52.944;9.098;2022-12-07T23:16:50;6.10;;;4.57;;
21107;SDS011;10712;52.944;9.098;2022-12-07T23:19:16;8.40;;;4.18;;
21107;SDS011;10712;52.944;9.098;2022-12-07T23:21:43;13.13;;;5.63;;
21107;SDS011;10712;52.944;9.098;2022-12-07T23:24:12;12.50;;;6.50;;
21107;SDS011;10712;52.944;9.098;2022-12-07T23:26:40;8.50;;;6.70;;
21107;SDS011;10712;52.944;9.098;2022-12-07T23:29:07;9.32;;;6.28;;
21107;SDS011;10712;52.944;9.098;2022-12-07T23:31:34;10.20;;;6.15;;
21107;SDS011;10712;52.944;9.098;2022-12-07T23:34:00;7.05;;;5.35;;
21107;SDS011;10712;52.944;9.098;2022-12-07T23:36:26;7.93;;;5.10;;
21107;SDS011;10712;52.944;9.098;2022-12-07T23:38:54;8.07;;;5.18;;
21107;SDS011;10712;52.944;9.098;2022-12-07T23:41:24;8.02;;;5.53;;
21107;SDS011;10712;52.944;9.098;2022-12-07T23:43:56;9.77;;;6.33;;
21107;SDS011;10712;52.944;9.098;2022-12-07T23:46:25;10.05;;;5.97;;
21107;SDS011;10712;52.944;9.098;2022-12-07T23:48:54;7.80;;;5.68;;
21107;SDS011;10712;52.944;9.098;2022-12-07T23:51:22;7.05;;;6.10;;
21107;SDS011;10712;52.944;9.098;2022-12-07T23:53:50;8.75;;;6.35;;
21107;SDS011;10712;52.944;9.098;2022-12-07T23:56:18;8.07;;;6.05;;
21107;SDS011;10712;52.944;9.098;2022-12-07T23:58:48;8.00;;;6.47;;
